Time;durP1;ratioP1;P1;durP2;ratioP2;P2;SDS_P1;SDS_P2;PMS_P1;PMS_P2;Temp;Humidity;BMP_temperature;BMP_pressure;BME280_temperature;BME280_humidity;BME280_pressure;Samples;Min_cycle;Max_cycle;Signal;HPM_P1;HPM_P2
2022/10/21 00:00:09;;;;;;;;;;;11.50;61.80;;;;;;5042554;28;87064;-37
2022/10/21 00:02:34;;;;;;;;;;;11.50;61.80;;;;;;5045057;27;87481;-37
2022/10/21 00:05:00;;;;;;;;;;;11.50;62.00;;;;;;5044921;28;87024;-36
2022/10/21 00:07:25;;;;;;;;;;;11.50;61.90;;;;;;5046113;28;87938;-37
2022/10/21 00:09:51;;;;;;;;;;;11.40;61.80;;;;;;5045789;28;87241;-38
2022/10/21 00:12:17;;;;;;;;;;;11.40;61.90;;;;;;5045694;28;87107;-37
2022/10/21 00:14:42;;;;;;;;;;;11.40;61.80;;;;;;5045679;28;87244;-37
2022/10/21 00:17:08;;;;;;;;;;;11.40;61.90;;;;;;5044937;28;88994;-40
2022/10/21 00:19:33;;;;;;;;;;;11.40;61.70;;;;;;5045851;28;87027;-37
2022/10/21 00:21:59;;;;;;;;;;;11.40;61.90;;;;;;5048390;28;87125;-37
2022/10/21 00:24:24;;;;;;;;;;;11.30;61.80;;;;;;5045069;28;87100;-37
2022/10/21 00:26:50;;;;;;;;;;;11.40;61.90;;;;;;5045588;28;87745;-37
2022/10/21 00:29:15;;;;;;;;;;;11.40;61.80;;;;;;5045229;28;87898;-37
2022/10/21 00:31:41;;;;;;;;;;;11.40;61.60;;;;;;5045676;28;87114;-37
2022/10/21 00:34:06;;;;;;;;;;;11.40;61.70;;;;;;5046014;28;87744;-36
2022/10/21 00:36:32;;;;;;;;;;;11.40;61.90;;;;;;5045369;28;88243;-37
2022/10/21 00:38:57;;;;;;;;;;;11.30;61.60;;;;;;5045405;28;87111;-37
2022/10/21 00:41:23;;;;;;;;;;;11.30;61.60;;;;;;5044900;28;87897;-37
2022/10/21 00:43:57;;;;;;;;;;;11.30;61.60;;;;;;5047771;28;88051;-37
2022/10/21 00:46:28;;;;;;;;;;;11.30;61.60;;;;;;5045064;27;89636;-37
2022/10/21 00:48:56;;;;;;;;;;;11.30;61.70;;;;;;5045110;28;88365;-37
2022/10/21 00:51:21;;;;;;;;;;;11.30;61.60;;;;;;5045231;28;86951;-37
2022/10/21 00:53:47;;;;;;;;;;;11.20;61.60;;;;;;5045391;28;86949;-37
2022/10/21 00:56:17;;;;;;;;;;;11.20;61.50;;;;;;5044464;28;87107;-37
2022/10/21 00:58:43;;;;;;;;;;;11.30;61.70;;;;;;5045449;28;86274;-37
2022/10/21 01:01:09;;;;;;;;;;;11.20;61.40;;;;;;5045051;27;87002;-37
2022/10/21 01:03:34;;;;;;;;;;;11.20;61.60;;;;;;5044825;28;88201;-37
2022/10/21 01:06:02;;;;;;;;;;;11.20;61.50;;;;;;5047239;28;88048;-37
2022/10/21 01:08:28;;;;;;;;;;;11.20;61.50;;;;;;5044703;28;88194;-36
2022/10/21 01:10:54;;;;;;;;;;;11.20;61.70;;;;;;5044404;28;87463;-37
2022/10/21 01:13:27;;;;;;;;;;;11.10;61.40;;;;;;5044824;28;87359;-37
2022/10/21 01:15:52;;;;;;;;;;;11.10;61.50;;;;;;5043805;28;88323;-37
2022/10/21 01:18:41;;;;;;;;;;;11.10;61.50;;;;;;5044860;28;87129;-37
2022/10/21 01:21:13;;;;;;;;;;;11.10;61.50;;;;;;5024354;27;87474;-37
2022/10/21 01:23:54;;;;;;;;;;;11.10;61.60;;;;;;5044322;28;87480;-37
2022/10/21 01:26:20;;;;;;;;;;;11.10;61.50;;;;;;5044800;28;86889;-37
2022/10/21 01:29:08;;;;;;;;;;;11.10;61.50;;;;;;5047165;27;87448;-37
2022/10/21 01:31:40;;;;;;;;;;;11.10;61.50;;;;;;5038150;28;88112;-37
2022/10/21 01:34:13;;;;;;;;;;;11.10;61.50;;;;;;5044907;28;88373;-37
2022/10/21 01:36:44;;;;;;;;;;;11.00;61.50;;;;;;5043891;28;88061;-37
2022/10/21 01:39:17;;;;;;;;;;;11.00;61.50;;;;;;5044363;28;87002;-37
2022/10/21 01:41:47;;;;;;;;;;;11.00;61.40;;;;;;5044484;27;86995;-37
2022/10/21 01:44:27;;;;;;;;;;;11.00;61.40;;;;;;5044112;28;87906;-37
2022/10/21 01:46:57;;;;;;;;;;;11.00;61.40;;;;;;5044085;28;87057;-38
2022/10/21 01:49:26;;;;;;;;;;;11.00;61.40;;;;;;5044622;27;87298;-37
2022/10/21 01:51:52;;;;;;;;;;;11.00;61.40;;;;;;5047004;28;87907;-37
2022/10/21 01:54:19;;;;;;;;;;;10.90;61.40;;;;;;5044157;28;87058;-37
2022/10/21 01:56:45;;;;;;;;;;;10.90;61.30;;;;;;5043173;28;88966;-37
2022/10/21 01:59:12;;;;;;;;;;;10.90;61.40;;;;;;5043933;28;87156;-38
2022/10/21 02:01:38;;;;;;;;;;;10.90;61.40;;;;;;5044258;27;87258;-37
2022/10/21 02:04:04;;;;;;;;;;;10.90;61.30;;;;;;5043650;28;87783;-37
2022/10/21 02:06:30;;;;;;;;;;;10.90;61.40;;;;;;5043793;28;87786;-36
2022/10/21 02:08:55;;;;;;;;;;;10.90;61.40;;;;;;5044127;27;87342;-37
2022/10/21 02:11:21;;;;;;;;;;;10.80;61.30;;;;;;5043331;28;87992;-37
2022/10/21 02:13:51;;;;;;;;;;;10.80;61.30;;;;;;5046889;28;86272;-37
2022/10/21 02:16:19;;;;;;;;;;;10.80;61.30;;;;;;5043221;28;88400;-37
2022/10/21 02:18:44;;;;;;;;;;;10.80;61.20;;;;;;5043849;28;87147;-37
2022/10/21 02:21:13;;;;;;;;;;;10.80;61.10;;;;;;5043415;28;87921;-37
2022/10/21 02:23:41;;;;;;;;;;;10.80;61.20;;;;;;5042644;28;87410;-37
2022/10/21 02:26:07;;;;;;;;;;;10.80;61.10;;;;;;5043446;28;87600;-37
2022/10/21 02:28:33;;;;;;;;;;;10.80;61.30;;;;;;5042725;28;87402;-37
2022/10/21 02:31:05;;;;;;;;;;;10.70;61.10;;;;;;5043369;28;88199;-37
2022/10/21 02:33:36;;;;;;;;;;;10.80;61.20;;;;;;5046674;28;86983;-37
2022/10/21 02:36:10;;;;;;;;;;;10.70;61.10;;;;;;5043309;28;88485;-36
2022/10/21 02:38:42;;;;;;;;;;;10.70;61.10;;;;;;5043729;28;86240;-37
2022/10/21 02:41:12;;;;;;;;;;;10.70;61.10;;;;;;5043485;27;87019;-37
2022/10/21 02:43:47;;;;;;;;;;;10.70;61.20;;;;;;5041807;28;89549;-37
2022/10/21 02:46:13;;;;;;;;;;;10.70;61.30;;;;;;5042805;28;87910;-37
2022/10/21 02:48:39;;;;;;;;;;;10.70;61.10;;;;;;5043476;27;88833;-37
2022/10/21 02:51:06;;;;;;;;;;;10.60;61.20;;;;;;5042978;28;88124;-37
2022/10/21 02:53:32;;;;;;;;;;;10.70;61.70;;;;;;5043185;28;87082;-37
2022/10/21 02:55:57;;;;;;;;;;;10.60;60.90;;;;;;5045745;27;88047;-38
2022/10/21 02:58:23;;;;;;;;;;;10.60;61.10;;;;;;5043274;28;86998;-37
2022/10/21 03:00:48;;;;;;;;;;;10.60;61.00;;;;;;5043177;28;87654;-37
2022/10/21 03:03:14;;;;;;;;;;;10.60;61.00;;;;;;5043445;28;87331;-37
2022/10/21 03:05:39;;;;;;;;;;;10.60;61.10;;;;;;5043119;28;87054;-37
2022/10/21 03:08:05;;;;;;;;;;;10.50;61.10;;;;;;5042822;27;87311;-36
2022/10/21 03:10:31;;;;;;;;;;;10.60;61.10;;;;;;5041780;28;88877;-37
2022/10/21 03:12:56;;;;;;;;;;;10.60;61.10;;;;;;5042825;28;87080;-37
2022/10/21 03:15:22;;;;;;;;;;;10.50;61.00;;;;;;5043007;28;87355;-37
2022/10/21 03:17:47;;;;;;;;;;;10.50;60.90;;;;;;5045560;28;88204;-37
2022/10/21 03:20:13;;;;;;;;;;;10.50;60.90;;;;;;5043190;28;87529;-37
2022/10/21 03:22:38;;;;;;;;;;;10.50;61.50;;;;;;5042276;28;88036;-37
2022/10/21 03:25:04;;;;;;;;;;;10.50;60.90;;;;;;5042429;28;87106;-36
2022/10/21 03:27:30;;;;;;;;;;;10.50;61.10;;;;;;5043007;27;88993;-37
2022/10/21 03:29:55;;;;;;;;;;;10.40;61.00;;;;;;5042314;28;88144;-37
2022/10/21 03:32:21;;;;;;;;;;;10.40;60.80;;;;;;5042893;28;86974;-37
2022/10/21 03:34:46;;;;;;;;;;;10.40;61.10;;;;;;5042075;28;88037;-37
2022/10/21 03:37:12;;;;;;;;;;;10.40;61.00;;;;;;5042336;28;88006;-37
2022/10/21 03:39:37;;;;;;;;;;;10.40;61.00;;;;;;5049584;27;87122;-37
2022/10/21 03:42:03;;;;;;;;;;;10.40;60.90;;;;;;5049074;28;88051;-37
2022/10/21 03:44:28;;;;;;;;;;;10.40;60.90;;;;;;5049578;28;87307;-37
2022/10/21 03:46:54;;;;;;;;;;;10.40;60.80;;;;;;5049243;28;86790;-37
2022/10/21 03:49:19;;;;;;;;;;;10.30;60.90;;;;;;5048966;28;88340;-37
2022/10/21 03:51:45;;;;;;;;;;;10.40;60.90;;;;;;5049683;28;86363;-37
2022/10/21 03:54:10;;;;;;;;;;;10.30;60.80;;;;;;5049361;28;87128;-38
2022/10/21 03:56:36;;;;;;;;;;;10.30;60.80;;;;;;5048795;28;88361;-37
2022/10/21 03:59:01;;;;;;;;;;;10.30;60.80;;;;;;5048560;28;87917;-37
2022/10/21 04:01:27;;;;;;;;;;;10.30;60.80;;;;;;5051827;28;88413;-37
2022/10/21 04:03:53;;;;;;;;;;;10.30;60.90;;;;;;5049060;28;87185;-37
2022/10/21 04:06:18;;;;;;;;;;;10.30;60.80;;;;;;5048978;27;87398;-37
2022/10/21 04:08:44;;;;;;;;;;;10.20;60.80;;;;;;5048527;28;88353;-37
2022/10/21 04:11:09;;;;;;;;;;;10.20;60.80;;;;;;5049026;28;87221;-37
2022/10/21 04:13:35;;;;;;;;;;;10.20;60.70;;;;;;5049224;28;87401;-37
2022/10/21 04:16:02;;;;;;;;;;;10.20;60.70;;;;;;5049117;28;87414;-37
2022/10/21 04:18:28;;;;;;;;;;;10.20;60.70;;;;;;5048913;28;87128;-37
2022/10/21 04:20:53;;;;;;;;;;;10.20;60.70;;;;;;5051612;27;87224;-37
2022/10/21 04:23:19;;;;;;;;;;;10.20;60.70;;;;;;5047489;28;88150;-37
2022/10/21 04:25:45;;;;;;;;;;;10.20;60.70;;;;;;5048923;28;87586;-37
2022/10/21 04:28:10;;;;;;;;;;;10.20;61.30;;;;;;5048633;28;87914;-37
2022/10/21 04:30:36;;;;;;;;;;;10.20;60.60;;;;;;5048776;28;87107;-37
2022/10/21 04:33:01;;;;;;;;;;;10.10;60.70;;;;;;5048847;28;87560;-37
2022/10/21 04:35:27;;;;;;;;;;;10.10;60.80;;;;;;5048541;28;88394;-37
2022/10/21 04:37:52;;;;;;;;;;;10.10;60.70;;;;;;5048266;28;87164;-37
2022/10/21 04:40:18;;;;;;;;;;;10.10;60.60;;;;;;5049427;28;87451;-37
2022/10/21 04:42:47;;;;;;;;;;;10.10;60.80;;;;;;5051235;28;88223;-37
2022/10/21 04:45:12;;;;;;;;;;;10.10;60.70;;;;;;5048532;27;87652;-37
2022/10/21 04:47:38;;;;;;;;;;;10.10;60.70;;;;;;5047605;28;89027;-37
2022/10/21 04:50:04;;;;;;;;;;;10.00;60.80;;;;;;5047451;28;87030;-37
2022/10/21 04:52:29;;;;;;;;;;;10.00;60.70;;;;;;5044481;27;88859;-37
2022/10/21 04:54:55;;;;;;;;;;;10.00;60.60;;;;;;5045080;28;88687;-37
2022/10/21 04:57:20;;;;;;;;;;;10.00;60.70;;;;;;5045276;28;87047;-37
2022/10/21 04:59:46;;;;;;;;;;;10.00;60.70;;;;;;5045291;28;88813;-37
2022/10/21 05:02:12;;;;;;;;;;;10.00;60.60;;;;;;5044799;28;88255;-37
2022/10/21 05:04:38;;;;;;;;;;;10.00;60.70;;;;;;5048319;28;86373;-37
2022/10/21 05:07:04;;;;;;;;;;;10.00;60.60;;;;;;5044306;28;88178;-37
2022/10/21 05:09:29;;;;;;;;;;;9.90;60.80;;;;;;5044774;28;86923;-37
2022/10/21 05:11:55;;;;;;;;;;;9.90;60.70;;;;;;5044296;27;87954;-37
2022/10/21 05:14:20;;;;;;;;;;;9.90;60.70;;;;;;5044599;28;87888;-37
2022/10/21 05:16:46;;;;;;;;;;;9.90;60.70;;;;;;5044898;28;87021;-37
2022/10/21 05:19:11;;;;;;;;;;;9.90;60.70;;;;;;5044865;28;87479;-36
2022/10/21 05:21:37;;;;;;;;;;;9.90;60.60;;;;;;5044410;28;88190;-37
2022/10/21 05:24:02;;;;;;;;;;;9.90;60.70;;;;;;5043886;28;87014;-37
2022/10/21 05:26:29;;;;;;;;;;;9.80;60.60;;;;;;5047187;27;87245;-37
2022/10/21 05:28:56;;;;;;;;;;;9.80;60.50;;;;;;5044887;28;86226;-37
2022/10/21 05:31:21;;;;;;;;;;;9.90;60.60;;;;;;5044779;27;86873;-37
2022/10/21 05:33:47;;;;;;;;;;;9.80;60.50;;;;;;5044078;28;87436;-37
2022/10/21 05:36:12;;;;;;;;;;;9.80;60.30;;;;;;5044008;28;87937;-37
2022/10/21 05:38:38;;;;;;;;;;;9.80;60.50;;;;;;5044404;28;88430;-36
2022/10/21 05:41:03;;;;;;;;;;;9.80;60.60;;;;;;5044093;28;88104;-37
2022/10/21 05:43:29;;;;;;;;;;;9.80;60.50;;;;;;5044562;28;87081;-37
2022/10/21 05:45:55;;;;;;;;;;;9.80;60.50;;;;;;5044413;28;87320;-37
2022/10/21 05:48:20;;;;;;;;;;;9.80;60.50;;;;;;5046950;28;88168;-37
2022/10/21 05:50:46;;;;;;;;;;;9.80;60.50;;;;;;5044266;27;87341;-36
2022/10/21 05:53:12;;;;;;;;;;;9.70;60.50;;;;;;5044054;27;86511;-37
2022/10/21 05:55:38;;;;;;;;;;;9.70;60.40;;;;;;5044142;28;87063;-37
2022/10/21 05:58:03;;;;;;;;;;;9.80;60.40;;;;;;5044348;27;87525;-37
2022/10/21 06:00:29;;;;;;;;;;;9.80;60.40;;;;;;5043227;28;88952;-36
2022/10/21 06:02:54;;;;;;;;;;;9.70;60.40;;;;;;5044070;28;86966;-37
2022/10/21 06:05:20;;;;;;;;;;;9.70;60.40;;;;;;5044236;28;88610;-37
2022/10/21 06:07:46;;;;;;;;;;;9.70;60.90;;;;;;5043719;28;87945;-37
2022/10/21 06:10:11;;;;;;;;;;;9.70;60.30;;;;;;5046883;28;87103;-37
2022/10/21 06:12:37;;;;;;;;;;;9.70;60.30;;;;;;5043531;28;87831;-37
2022/10/21 06:15:02;;;;;;;;;;;9.70;60.30;;;;;;5044212;28;87141;-37
2022/10/21 06:17:28;;;;;;;;;;;9.70;60.30;;;;;;5044384;27;87372;-37
2022/10/21 06:19:53;;;;;;;;;;;9.70;60.20;;;;;;5043575;28;88122;-37
2022/10/21 06:22:19;;;;;;;;;;;9.70;60.40;;;;;;5043710;28;87103;-37
2022/10/21 06:24:45;;;;;;;;;;;9.70;60.30;;;;;;5042537;28;88078;-36
2022/10/21 06:27:10;;;;;;;;;;;9.70;60.40;;;;;;5043326;28;87851;-36
2022/10/21 06:29:36;;;;;;;;;;;9.70;60.40;;;;;;5046618;28;87061;-37
2022/10/21 06:32:01;;;;;;;;;;;9.60;60.30;;;;;;5043373;28;88046;-37
2022/10/21 06:34:27;;;;;;;;;;;9.60;60.40;;;;;;5043768;28;87163;-37
2022/10/21 06:36:52;;;;;;;;;;;9.70;60.50;;;;;;5043556;28;86903;-37
2022/10/21 06:39:18;;;;;;;;;;;9.60;60.60;;;;;;5043105;28;88068;-37
2022/10/21 06:41:43;;;;;;;;;;;9.60;60.40;;;;;;5044170;28;86378;-36
2022/10/21 06:44:09;;;;;;;;;;;9.60;60.60;;;;;;5043521;28;87054;-37
2022/10/21 06:46:34;;;;;;;;;;;9.60;60.60;;;;;;5043076;28;88026;-37
2022/10/21 06:49:00;;;;;;;;;;;9.60;60.60;;;;;;5042692;28;88041;-36
2022/10/21 06:51:25;;;;;;;;;;;9.60;60.50;;;;;;5045896;27;88277;-37
2022/10/21 06:53:52;;;;;;;;;;;9.60;60.70;;;;;;5043177;28;87141;-37
2022/10/21 06:56:18;;;;;;;;;;;9.60;60.80;;;;;;5043257;28;87512;-37
2022/10/21 06:58:48;;;;;;;;;;;9.60;60.70;;;;;;5043204;28;88358;-36
2022/10/21 07:01:18;;;;;;;;;;;9.60;60.70;;;;;;5043049;28;86831;-37
2022/10/21 07:03:43;;;;;;;;;;;9.50;60.80;;;;;;5042980;28;87459;-37
2022/10/21 07:06:09;;;;;;;;;;;9.50;61.40;;;;;;5043133;28;87737;-36
2022/10/21 07:08:34;;;;;;;;;;;9.50;60.70;;;;;;5042979;28;87117;-36
2022/10/21 07:11:00;;;;;;;;;;;9.50;60.90;;;;;;5042942;27;87341;-37
2022/10/21 07:13:25;;;;;;;;;;;9.50;60.90;;;;;;5044307;27;89034;-37
2022/10/21 07:16:05;;;;;;;;;;;9.50;61.00;;;;;;5043142;28;88337;-37
2022/10/21 07:18:31;;;;;;;;;;;9.50;61.00;;;;;;5042302;28;89754;-36
2022/10/21 07:21:02;;;;;;;;;;;9.50;60.90;;;;;;5042798;28;87106;-37
2022/10/21 07:23:27;;;;;;;;;;;9.50;61.00;;;;;;5042746;27;87441;-37
2022/10/21 07:25:53;;;;;;;;;;;9.50;61.00;;;;;;5042651;28;88090;-37
2022/10/21 07:28:18;;;;;;;;;;;9.50;61.10;;;;;;5042806;28;87102;-36
2022/10/21 07:30:44;;;;;;;;;;;9.40;61.20;;;;;;5043234;28;86875;-37
2022/10/21 07:33:10;;;;;;;;;;;9.40;61.60;;;;;;5042411;28;87279;-36
2022/10/21 07:35:36;;;;;;;;;;;9.40;61.20;;;;;;5045572;28;87997;-37
2022/10/21 07:38:02;;;;;;;;;;;9.50;61.20;;;;;;5041739;28;89051;-37
2022/10/21 07:40:28;;;;;;;;;;;9.50;61.30;;;;;;5042883;28;87111;-36
2022/10/21 07:42:54;;;;;;;;;;;9.50;61.20;;;;;;5042662;27;87335;-37
2022/10/21 07:45:19;;;;;;;;;;;9.40;61.30;;;;;;5042265;28;88200;-37
2022/10/21 07:47:45;;;;;;;;;;;9.40;61.30;;;;;;5042568;28;87397;-37
2022/10/21 07:50:11;;;;;;;;;;;9.40;61.40;;;;;;5042421;28;87574;-37
2022/10/21 07:52:44;;;;;;;;;;;9.40;61.40;;;;;;5042231;28;87968;-37
2022/10/21 07:55:13;;;;;;;;;;;9.40;61.60;;;;;;5043265;28;86691;-36
2022/10/21 07:57:39;;;;;;;;;;;9.40;61.40;;;;;;5044988;28;87054;-37
2022/10/21 08:00:06;;;;;;;;;;;9.40;61.40;;;;;;5042463;28;87496;-37
2022/10/21 08:02:31;;;;;;;;;;;9.40;61.50;;;;;;5042050;27;87960;-37
2022/10/21 08:04:57;;;;;;;;;;;9.40;62.20;;;;;;5041790;28;88277;-37
2022/10/21 08:07:22;;;;;;;;;;;9.40;61.60;;;;;;5042349;28;87039;-36
2022/10/21 08:09:48;;;;;;;;;;;9.40;61.50;;;;;;5042345;28;87566;-37
2022/10/21 08:12:13;;;;;;;;;;;9.40;61.50;;;;;;5042000;28;88180;-37
2022/10/21 08:14:39;;;;;;;;;;;9.40;61.60;;;;;;5042287;28;87204;-37
2022/10/21 08:17:04;;;;;;;;;;;9.40;61.70;;;;;;5042320;28;87459;-37
2022/10/21 08:19:30;;;;;;;;;;;9.40;61.60;;;;;;5045163;28;87374;-37
2022/10/21 08:21:56;;;;;;;;;;;9.40;61.70;;;;;;5042127;27;87048;-37
2022/10/21 08:24:22;;;;;;;;;;;9.40;61.70;;;;;;5041480;28;88085;-37
2022/10/21 08:26:48;;;;;;;;;;;9.40;61.80;;;;;;5041842;28;88214;-37
2022/10/21 08:29:13;;;;;;;;;;;9.40;61.80;;;;;;5045615;27;87511;-37
2022/10/21 08:31:39;;;;;;;;;;;9.40;61.80;;;;;;5045293;28;88003;-36
2022/10/21 08:34:05;;;;;;;;;;;9.40;61.90;;;;;;5045285;28;87234;-37
2022/10/21 08:36:30;;;;;;;;;;;9.40;61.90;;;;;;5045732;28;87619;-36
2022/10/21 08:38:57;;;;;;;;;;;9.40;62.00;;;;;;5048133;28;87065;-37
2022/10/21 08:41:28;;;;;;;;;;;9.40;62.00;;;;;;5045282;28;87705;-37
2022/10/21 08:44:14;;;;;;;;;;;9.40;62.00;;;;;;5045548;28;87430;-36
2022/10/21 08:46:52;;;;;;;;;;;9.40;62.00;;;;;;5022759;28;87086;-37
2022/10/21 08:49:29;;;;;;;;;;;9.40;62.00;;;;;;5045243;27;87225;-36
2022/10/21 08:51:59;;;;;;;;;;;9.40;61.90;;;;;;5044391;28;89177;-37
2022/10/21 08:54:30;;;;;;;;;;;9.40;61.90;;;;;;5045126;28;87240;-37
2022/10/21 08:56:59;;;;;;;;;;;9.40;62.00;;;;;;5044998;28;88898;-37
2022/10/21 08:59:25;;;;;;;;;;;9.40;62.10;;;;;;5044665;28;88078;-37
2022/10/21 09:01:57;;;;;;;;;;;9.40;62.20;;;;;;5047939;28;87153;-37
2022/10/21 09:04:43;;;;;;;;;;;9.40;62.30;;;;;;5044967;28;88387;-37
2022/10/21 09:07:20;;;;;;;;;;;9.40;62.30;;;;;;5044271;27;86798;-37
2022/10/21 09:09:52;;;;;;;;;;;9.50;62.30;;;;;;5045395;28;87910;-37
2022/10/21 09:12:24;;;;;;;;;;;9.50;62.30;;;;;;5044192;28;88247;-37
2022/10/21 09:14:55;;;;;;;;;;;9.50;62.20;;;;;;5045072;28;86927;-37
2022/10/21 09:17:29;;;;;;;;;;;9.50;62.40;;;;;;5044301;28;88428;-36
2022/10/21 09:20:01;;;;;;;;;;;9.50;62.40;;;;;;5044424;28;88079;-37
2022/10/21 09:22:45;;;;;;;;;;;9.50;62.40;;;;;;5044784;28;87372;-37
2022/10/21 09:25:16;;;;;;;;;;;9.50;62.50;;;;;;5047224;27;87144;-37
2022/10/21 09:27:42;;;;;;;;;;;9.50;62.40;;;;;;5044864;28;87319;-37
2022/10/21 09:30:13;;;;;;;;;;;9.60;62.40;;;;;;5044928;28;87537;-37
2022/10/21 09:32:39;;;;;;;;;;;9.50;62.60;;;;;;5044356;28;87280;-37
2022/10/21 09:35:08;;;;;;;;;;;9.50;62.60;;;;;;5045409;28;86367;-37
2022/10/21 09:37:33;;;;;;;;;;;9.60;62.50;;;;;;5043963;27;87567;-37
2022/10/21 09:40:05;;;;;;;;;;;9.60;62.60;;;;;;5043889;28;89588;-37
2022/10/21 09:42:30;;;;;;;;;;;9.60;62.70;;;;;;5043935;28;88105;-37
2022/10/21 09:44:56;;;;;;;;;;;9.60;62.50;;;;;;5044618;28;87589;-37
2022/10/21 09:47:22;;;;;;;;;;;9.60;62.50;;;;;;5046674;28;87958;-37
2022/10/21 09:49:50;;;;;;;;;;;9.60;62.70;;;;;;5044533;28;87062;-37
2022/10/21 09:52:17;;;;;;;;;;;9.50;62.80;;;;;;5043747;28;88006;-37
2022/10/21 09:54:43;;;;;;;;;;;9.50;62.70;;;;;;5044273;28;87054;-37
2022/10/21 09:57:12;;;;;;;;;;;9.50;62.80;;;;;;5044464;27;87183;-37
2022/10/21 09:59:50;;;;;;;;;;;9.50;63.00;;;;;;5044593;28;87291;-37
2022/10/21 10:02:24;;;;;;;;;;;9.40;63.20;;;;;;5044154;28;86987;-36
2022/10/21 10:04:49;;;;;;;;;;;9.50;63.30;;;;;;5044358;28;87122;-37
2022/10/21 10:07:24;;;;;;;;;;;9.60;62.90;;;;;;5042985;28;89162;-37
2022/10/21 10:09:49;;;;;;;;;;;9.60;62.80;;;;;;5047017;28;87046;-37
2022/10/21 10:12:19;;;;;;;;;;;9.70;62.60;;;;;;5043557;28;88216;-37
2022/10/21 10:14:45;;;;;;;;;;;9.70;62.50;;;;;;5043678;28;87036;-36
2022/10/21 10:17:22;;;;;;;;;;;9.70;62.60;;;;;;5044195;28;87101;-37
2022/10/21 10:20:06;;;;;;;;;;;9.80;62.60;;;;;;5043502;28;88034;-37
2022/10/21 10:22:40;;;;;;;;;;;9.80;62.50;;;;;;5043829;28;87157;-36
2022/10/21 10:25:07;;;;;;;;;;;9.80;62.50;;;;;;5044081;28;86581;-37
2022/10/21 10:27:32;;;;;;;;;;;9.80;62.50;;;;;;5043462;28;87989;-37
2022/10/21 10:29:59;;;;;;;;;;;9.90;62.50;;;;;;5043792;28;87042;-37
2022/10/21 10:32:30;;;;;;;;;;;9.80;62.50;;;;;;5045482;27;88794;-37
2022/10/21 10:35:03;;;;;;;;;;;9.90;62.50;;;;;;5043608;28;87098;-38
2022/10/21 10:37:33;;;;;;;;;;;9.90;62.50;;;;;;5043191;27;87483;-37
2022/10/21 10:39:59;;;;;;;;;;;9.90;62.50;;;;;;5043235;28;88270;-37
2022/10/21 10:42:27;;;;;;;;;;;9.90;62.70;;;;;;5043427;28;87059;-37
2022/10/21 10:44:57;;;;;;;;;;;9.90;62.60;;;;;;5043471;28;87506;-37
2022/10/21 10:47:27;;;;;;;;;;;10.00;62.60;;;;;;5043032;28;87915;-37
2022/10/21 10:49:53;;;;;;;;;;;10.00;62.70;;;;;;5042669;28;86440;-36
2022/10/21 10:52:20;;;;;;;;;;;10.00;62.60;;;;;;5045832;27;86956;-37
2022/10/21 10:54:46;;;;;;;;;;;9.90;62.70;;;;;;5043182;28;87131;-38
2022/10/21 10:57:14;;;;;;;;;;;10.00;62.70;;;;;;5042813;28;88024;-36
2022/10/21 10:59:39;;;;;;;;;;;10.00;62.80;;;;;;5043011;28;87948;-37
2022/10/21 11:02:08;;;;;;;;;;;10.00;62.70;;;;;;5043606;28;88099;-37
2022/10/21 11:04:45;;;;;;;;;;;10.00;62.80;;;;;;5042974;27;87275;-37
2022/10/21 11:07:17;;;;;;;;;;;10.00;62.70;;;;;;5042672;28;87551;-37
2022/10/21 11:09:43;;;;;;;;;;;10.00;62.60;;;;;;5043128;28;87149;-37
2022/10/21 11:12:20;;;;;;;;;;;10.00;62.60;;;;;;5043035;27;87262;-37
2022/10/21 11:14:49;;;;;;;;;;;10.10;62.60;;;;;;5046316;28;87458;-37
2022/10/21 11:17:18;;;;;;;;;;;10.10;62.70;;;;;;5042670;28;86950;-37
2022/10/21 11:19:49;;;;;;;;;;;10.10;62.70;;;;;;5042674;28;88600;-37
2022/10/21 11:22:33;;;;;;;;;;;10.10;62.60;;;;;;5042267;28;87986;-38
2022/10/21 11:25:03;;;;;;;;;;;10.10;62.70;;;;;;5042372;27;88486;-37
2022/10/21 11:27:48;;;;;;;;;;;10.10;62.70;;;;;;5042104;28;88056;-36
2022/10/21 11:30:21;;;;;;;;;;;10.10;62.60;;;;;;5042728;28;86955;-38
2022/10/21 11:32:49;;;;;;;;;;;10.20;62.70;;;;;;5042883;27;87952;-37
2022/10/21 11:35:17;;;;;;;;;;;10.20;62.60;;;;;;5042569;28;88210;-37
2022/10/21 11:37:55;;;;;;;;;;;10.20;62.60;;;;;;5045716;28;87459;-37
2022/10/21 11:40:24;;;;;;;;;;;10.20;62.60;;;;;;5042703;28;87233;-37
2022/10/21 11:42:50;;;;;;;;;;;10.20;62.50;;;;;;5042731;28;86891;-37
2022/10/21 11:45:16;;;;;;;;;;;10.20;63.00;;;;;;5042860;27;86797;-37
2022/10/21 11:47:53;;;;;;;;;;;10.30;62.70;;;;;;5041415;28;89089;-37
2022/10/21 11:50:29;;;;;;;;;;;10.20;62.60;;;;;;5042730;28;87115;-37
2022/10/21 11:53:13;;;;;;;;;;;10.30;62.80;;;;;;5042563;27;87346;-37
2022/10/21 11:55:46;;;;;;;;;;;10.30;63.00;;;;;;5042315;27;87877;-37
2022/10/21 11:58:14;;;;;;;;;;;10.30;62.70;;;;;;5042328;28;87113;-37
2022/10/21 12:00:43;;;;;;;;;;;10.30;62.90;;;;;;5046932;27;87514;-37
2022/10/21 12:03:18;;;;;;;;;;;10.40;62.80;;;;;;5045921;28;87111;-37
2022/10/21 12:06:00;;;;;;;;;;;10.40;62.70;;;;;;5046717;27;87255;-37
2022/10/21 12:08:30;;;;;;;;;;;10.40;62.80;;;;;;5045603;28;88073;-37
2022/10/21 12:10:58;;;;;;;;;;;10.40;62.70;;;;;;5044309;28;87154;-36
2022/10/21 12:13:28;;;;;;;;;;;10.40;62.70;;;;;;5045278;28;87930;-37
2022/10/21 12:15:56;;;;;;;;;;;10.50;62.90;;;;;;5045204;28;87994;-37
2022/10/21 12:18:23;;;;;;;;;;;10.50;62.50;;;;;;5045725;28;87110;-37
2022/10/21 12:20:50;;;;;;;;;;;10.50;62.60;;;;;;5045968;27;87461;-38
2022/10/21 12:23:25;;;;;;;;;;;10.50;62.50;;;;;;5048034;28;90402;-36
2022/10/21 12:26:03;;;;;;;;;;;10.50;63.00;;;;;;5045891;28;87372;-37
2022/10/21 12:28:55;;;;;;;;;;;10.50;63.00;;;;;;5045111;28;88027;-38
2022/10/21 12:31:24;;;;;;;;;;;10.50;62.80;;;;;;5043613;28;86512;-37
2022/10/21 12:33:49;;;;;;;;;;;10.50;62.60;;;;;;5045755;28;87056;-37
2022/10/21 12:36:38;;;;;;;;;;;10.60;62.50;;;;;;5045262;28;87826;-37
2022/10/21 12:39:04;;;;;;;;;;;10.60;62.60;;;;;;5044950;28;87918;-37
2022/10/21 12:41:34;;;;;;;;;;;10.60;62.60;;;;;;5045474;27;88672;-37
2022/10/21 12:43:59;;;;;;;;;;;10.60;62.80;;;;;;5044804;28;88220;-37
2022/10/21 12:46:27;;;;;;;;;;;10.60;62.70;;;;;;5048097;28;86959;-38
2022/10/21 12:48:53;;;;;;;;;;;10.60;62.90;;;;;;5044833;28;88189;-37
2022/10/21 12:51:22;;;;;;;;;;;10.60;62.70;;;;;;5044996;28;87156;-37
2022/10/21 12:53:49;;;;;;;;;;;10.70;62.70;;;;;;5045255;27;86966;-37
2022/10/21 12:56:41;;;;;;;;;;;10.70;62.70;;;;;;5045267;28;87405;-37
2022/10/21 12:59:15;;;;;;;;;;;10.70;63.00;;;;;;5042721;28;86996;-37
2022/10/21 13:01:42;;;;;;;;;;;10.70;62.70;;;;;;5044936;27;87360;-37
2022/10/21 13:04:26;;;;;;;;;;;10.70;62.70;;;;;;5044057;28;88928;-37
2022/10/21 13:07:14;;;;;;;;;;;10.70;62.60;;;;;;5047851;27;87167;-37
2022/10/21 13:09:40;;;;;;;;;;;10.70;63.00;;;;;;5038447;28;87801;-37
2022/10/21 13:12:08;;;;;;;;;;;10.80;62.80;;;;;;5043611;28;87267;-37
2022/10/21 13:14:44;;;;;;;;;;;10.80;63.20;;;;;;5044735;28;87564;-37
2022/10/21 13:17:21;;;;;;;;;;;10.80;63.10;;;;;;5044387;28;87938;-37
2022/10/21 13:19:48;;;;;;;;;;;10.80;62.90;;;;;;5044633;28;87110;-37
2022/10/21 13:22:16;;;;;;;;;;;10.80;63.10;;;;;;5045177;27;87359;-37
2022/10/21 13:24:42;;;;;;;;;;;10.80;62.90;;;;;;5043735;28;88699;-37
2022/10/21 13:27:23;;;;;;;;;;;10.80;63.10;;;;;;5044620;28;87102;-37
2022/10/21 13:29:48;;;;;;;;;;;10.80;63.20;;;;;;5046702;28;88218;-37
2022/10/21 13:32:14;;;;;;;;;;;10.80;63.10;;;;;;5044734;28;87045;-38
2022/10/21 13:34:41;;;;;;;;;;;10.90;63.20;;;;;;5044637;28;87766;-37
2022/10/21 13:37:14;;;;;;;;;;;10.90;63.00;;;;;;5044190;28;88038;-37
2022/10/21 13:39:40;;;;;;;;;;;10.90;63.10;;;;;;5044431;28;87090;-37
2022/10/21 13:42:09;;;;;;;;;;;10.90;63.40;;;;;;5044593;27;87090;-37
2022/10/21 13:44:38;;;;;;;;;;;10.90;63.30;;;;;;5044032;28;88204;-38
2022/10/21 13:47:24;;;;;;;;;;;10.90;63.30;;;;;;5044548;28;86237;-37
2022/10/21 13:49:51;;;;;;;;;;;10.90;63.30;;;;;;5035827;28;87230;-37
2022/10/21 13:52:17;;;;;;;;;;;11.00;63.20;;;;;;5046685;28;88138;-37
2022/10/21 13:54:42;;;;;;;;;;;11.00;63.20;;;;;;5043794;28;87942;-38
2022/10/21 13:57:08;;;;;;;;;;;11.00;63.20;;;;;;5043855;28;88205;-38
2022/10/21 13:59:33;;;;;;;;;;;11.00;63.00;;;;;;5044283;28;87200;-37
2022/10/21 14:01:59;;;;;;;;;;;11.00;63.30;;;;;;5044418;28;87507;-37
2022/10/21 14:04:29;;;;;;;;;;;11.00;63.30;;;;;;5043608;28;88245;-37
2022/10/21 14:06:59;;;;;;;;;;;11.10;63.10;;;;;;5044118;28;86921;-36
2022/10/21 14:09:38;;;;;;;;;;;11.10;63.30;;;;;;5044211;28;87486;-37
2022/10/21 14:12:05;;;;;;;;;;;11.10;63.30;;;;;;5043829;28;87468;-37
2022/10/21 14:14:31;;;;;;;;;;;11.10;63.30;;;;;;5046948;28;86993;-37
2022/10/21 14:16:59;;;;;;;;;;;11.10;63.30;;;;;;5043721;28;87245;-38
2022/10/21 14:19:25;;;;;;;;;;;11.10;63.40;;;;;;5043173;28;87943;-38
2022/10/21 14:21:52;;;;;;;;;;;11.10;63.50;;;;;;5043883;27;88293;-37
2022/10/21 14:24:26;;;;;;;;;;;11.10;63.20;;;;;;5043159;27;88037;-37
2022/10/21 14:26:52;;;;;;;;;;;11.20;63.50;;;;;;5043892;28;86984;-37